Time;durP1;ratioP1;P1;durP2;ratioP2;P2;SDS_P1;SDS_P2;PMS_P1;PMS_P2;Temp;Humidity;BMP_temperature;BMP_pressure;BME280_temperature;BME280_humidity;BME280_pressure;Samples;Min_cycle;Max_cycle;Signal;HPM_P1;HPM_P2
2022/10/17 19:11:34;;;;;;;19.60;14.97;;;16.50;99.90;;;;;;5147914;27;20563;-54
2022/10/17 19:14:04;;;;;;;13.53;11.00;;;16.30;99.90;;;;;;5110699;28;20430;-54
2022/10/17 19:16:32;;;;;;;11.13;8.80;;;16.20;99.90;;;;;;5107943;28;20456;-54
2022/10/17 19:19:25;;;;;;;10.07;7.60;;;16.00;99.90;;;;;;5107585;28;20438;-54
2022/10/17 19:21:51;;;;;;;10.03;7.23;;;15.90;99.90;;;;;;5116415;28;20434;-53
2022/10/17 19:24:23;;;;;;;10.23;7.80;;;15.70;99.90;;;;;;5115274;27;20425;-53
2022/10/17 19:26:51;;;;;;;11.47;9.20;;;15.70;99.90;;;;;;5108296;28;20429;-54
2022/10/17 19:29:18;;;;;;;13.10;9.83;;;15.70;99.90;;;;;;5111597;28;20426;-54
2022/10/17 19:31:45;;;;;;;11.43;8.20;;;15.60;99.90;;;;;;5107239;28;20438;-60
2022/10/17 19:34:12;;;;;;;8.90;6.63;;;15.60;99.90;;;;;;5108545;28;20438;-54
2022/10/17 19:36:38;;;;;;;7.03;6.20;;;15.60;99.90;;;;;;5113624;28;20440;-53
2022/10/17 19:39:07;;;;;;;7.93;6.23;;;15.50;99.90;;;;;;5111498;27;20494;-54
2022/10/17 19:41:34;;;;;;;7.83;6.40;;;15.40;99.90;;;;;;5108414;28;20461;-54
2022/10/17 19:44:00;;;;;;;6.63;5.63;;;15.40;99.90;;;;;;5109543;28;20442;-53
2022/10/17 19:46:26;;;;;;;9.07;7.00;;;15.40;99.90;;;;;;5109853;27;20437;-54
2022/10/17 19:48:52;;;;;;;7.10;5.83;;;15.30;99.90;;;;;;5108681;28;20185;-54
2022/10/17 19:51:19;;;;;;;10.17;6.57;;;15.30;99.90;;;;;;5100363;28;20444;-53
2022/10/17 19:53:46;;;;;;;8.63;6.80;;;15.20;99.90;;;;;;5105876;28;20445;-55
2022/10/17 19:56:12;;;;;;;9.40;7.80;;;15.20;99.90;;;;;;5106980;28;20438;-54
2022/10/17 19:58:45;;;;;;;8.00;6.97;;;15.20;99.90;;;;;;5106853;27;20927;-54
2022/10/17 20:01:40;;;;;;;11.03;7.93;;;15.20;99.90;;;;;;5099983;28;20939;-53
2022/10/17 20:04:07;;;;;;;8.27;5.43;;;15.20;99.90;;;;;;5097039;27;21046;-54
2022/10/17 20:06:33;;;;;;;6.30;5.70;;;15.10;99.90;;;;;;5114161;27;20430;-54
2022/10/17 20:08:59;;;;;;;5.60;4.20;;;15.10;99.90;;;;;;5110743;28;21139;-54
2022/10/17 20:11:26;;;;;;;5.27;4.10;;;15.10;99.90;;;;;;5095295;28;20473;-54
2022/10/17 20:13:53;;;;;;;7.17;4.40;;;15.00;99.90;;;;;;5087171;28;20244;-54
2022/10/17 20:16:27;;;;;;;6.57;4.10;;;15.00;99.90;;;;;;5098121;28;20426;-54
2022/10/17 20:18:55;;;;;;;5.97;4.20;;;15.00;99.90;;;;;;5100135;28;20422;-54
2022/10/17 20:21:26;;;;;;;4.93;3.70;;;14.90;99.90;;;;;;5104729;28;20533;-54
2022/10/17 20:23:51;;;;;;;4.53;3.80;;;14.90;99.90;;;;;;5084213;28;20430;-53
2022/10/17 20:26:20;;;;;;;4.33;3.93;;;14.80;99.90;;;;;;5095205;28;20419;-53
2022/10/17 20:28:47;;;;;;;10.20;4.30;;;14.80;99.90;;;;;;5092744;28;20491;-53
2022/10/17 20:31:14;;;;;;;5.10;4.53;;;14.80;99.90;;;;;;5098981;28;20549;-53
2022/10/17 20:33:40;;;;;;;7.90;5.20;;;14.80;99.90;;;;;;5091585;28;20431;-53
2022/10/17 20:36:07;;;;;;;5.73;5.13;;;14.80;99.90;;;;;;5092475;28;20431;-54
2022/10/17 20:38:33;;;;;;;10.60;6.13;;;14.80;99.90;;;;;;5090051;28;20848;-53
2022/10/17 20:41:04;;;;;;;9.17;5.40;;;14.80;99.90;;;;;;5088451;28;20463;-54
2022/10/17 20:43:30;;;;;;;6.10;5.50;;;14.70;99.90;;;;;;5090344;28;20199;-53
2022/10/17 20:45:55;;;;;;;5.53;5.03;;;14.70;99.90;;;;;;5090911;28;20447;-53
2022/10/17 20:48:22;;;;;;;7.53;5.67;;;14.70;99.90;;;;;;5092203;28;20181;-53
2022/10/17 20:50:47;;;;;;;8.03;5.40;;;14.70;99.90;;;;;;5089331;28;20193;-53
2022/10/17 20:53:14;;;;;;;7.03;5.73;;;14.70;99.90;;;;;;5093037;28;20439;-53
2022/10/17 20:55:40;;;;;;;6.30;5.70;;;14.80;99.90;;;;;;5092406;28;20208;-54
2022/10/17 20:58:06;;;;;;;6.60;5.47;;;14.80;99.90;;;;;;5088591;28;20431;-54
2022/10/17 21:00:32;;;;;;;6.10;5.50;;;14.80;99.90;;;;;;5085742;28;20974;-53
2022/10/17 21:02:58;;;;;;;6.90;5.40;;;14.90;99.90;;;;;;5093460;28;20633;-54
2022/10/17 21:05:24;;;;;;;10.20;5.50;;;14.90;99.90;;;;;;5092333;28;20181;-54
2022/10/17 21:07:50;;;;;;;9.00;5.23;;;14.90;99.90;;;;;;5092220;28;21540;-53
2022/10/17 21:10:15;;;;;;;12.67;5.40;;;14.90;99.90;;;;;;5092739;28;20558;-53
2022/10/17 21:12:41;;;;;;;4.90;4.10;;;14.80;99.90;;;;;;5094095;28;20176;-53
2022/10/17 21:15:07;;;;;;;7.83;4.90;;;14.80;99.90;;;;;;5092207;28;20334;-53
2022/10/17 21:17:33;;;;;;;6.50;4.73;;;14.80;99.90;;;;;;5095184;28;20185;-53
2022/10/17 21:19:58;;;;;;;10.23;5.60;;;14.80;99.90;;;;;;5087895;28;20474;-53
2022/10/17 21:22:24;;;;;;;8.13;4.07;;;14.80;99.90;;;;;;5090834;28;20233;-53
2022/10/17 21:24:49;;;;;;;4.27;3.87;;;14.80;99.90;;;;;;5094994;28;20180;-53
2022/10/17 21:27:18;;;;;;;5.50;4.10;;;14.70;99.90;;;;;;5095534;28;20210;-53
2022/10/17 21:29:44;;;;;;;5.60;4.60;;;14.70;99.90;;;;;;5093091;28;20181;-53
2022/10/17 21:32:10;;;;;;;5.67;4.20;;;14.70;99.90;;;;;;5089847;28;20443;-52
2022/10/17 21:34:36;;;;;;;9.00;4.70;;;14.70;99.90;;;;;;5094344;28;20542;-54
2022/10/17 21:37:03;;;;;;;5.37;4.63;;;14.70;99.90;;;;;;5092413;28;20533;-53
2022/10/17 21:39:29;;;;;;;6.07;5.47;;;14.70;99.90;;;;;;5096091;28;20276;-53
2022/10/17 21:41:54;;;;;;;7.23;5.43;;;14.80;99.90;;;;;;5093281;28;20439;-53
2022/10/17 21:44:25;;;;;;;7.97;6.37;;;14.80;99.90;;;;;;5099758;28;20441;-54
2022/10/17 21:46:52;;;;;;;10.63;7.03;;;14.80;99.90;;;;;;5091995;28;20180;-54
2022/10/17 21:49:20;;;;;;;8.83;6.80;;;14.80;99.90;;;;;;5091595;28;20472;-53
2022/10/17 21:51:46;;;;;;;11.20;7.87;;;14.80;99.90;;;;;;5086978;28;20446;-53
2022/10/17 21:54:13;;;;;;;14.10;8.27;;;14.80;99.90;;;;;;5077672;28;20459;-53
2022/10/17 21:56:40;;;;;;;11.30;8.47;;;14.80;99.90;;;;;;5077462;28;20596;-53
2022/10/17 21:59:06;;;;;;;15.33;8.53;;;14.80;99.90;;;;;;5077966;28;21313;-53
2022/10/17 22:01:35;;;;;;;14.20;9.23;;;14.80;99.90;;;;;;5089491;28;20469;-53
2022/10/17 22:04:02;;;;;;;15.73;9.50;;;14.80;99.90;;;;;;5086078;28;20924;-53
2022/10/17 22:06:32;;;;;;;10.37;8.83;;;14.70;99.90;;;;;;5085917;28;20431;-54
2022/10/17 22:08:58;;;;;;;15.43;10.30;;;14.70;99.90;;;;;;5079464;28;20510;-53
2022/10/17 22:11:26;;;;;;;13.00;9.93;;;14.70;99.90;;;;;;5081115;28;20479;-53
2022/10/17 22:13:57;;;;;;;12.77;10.30;;;14.60;99.90;;;;;;5092985;28;20533;-53
2022/10/17 22:16:23;;;;;;;16.23;10.23;;;14.70;99.90;;;;;;5088615;28;20454;-53
2022/10/17 22:18:49;;;;;;;16.70;10.83;;;14.70;99.90;;;;;;5092797;28;20442;-53
2022/10/17 22:21:17;;;;;;;17.10;11.13;;;14.70;99.90;;;;;;5081987;28;20947;-53
2022/10/17 22:23:45;;;;;;;13.90;9.73;;;14.60;99.90;;;;;;5080491;28;20795;-53
2022/10/17 22:26:12;;;;;;;20.03;11.07;;;14.60;99.90;;;;;;5080459;28;20443;-53
2022/10/17 22:28:39;;;;;;;16.77;12.13;;;14.60;99.90;;;;;;5076879;28;20439;-60
2022/10/17 22:31:05;;;;;;;16.97;11.13;;;14.60;99.90;;;;;;5078212;28;20515;-53
2022/10/17 22:33:32;;;;;;;18.03;10.47;;;14.60;99.90;;;;;;5082483;28;20426;-53
2022/10/17 22:35:58;;;;;;;24.73;11.97;;;14.70;99.90;;;;;;5079960;28;20311;-53
2022/10/17 22:38:23;;;;;;;16.97;11.60;;;14.70;99.90;;;;;;5080846;28;20482;-53
2022/10/17 22:40:49;;;;;;;18.10;12.10;;;14.60;99.90;;;;;;5080373;28;20299;-53
2022/10/17 22:43:15;;;;;;;23.57;11.90;;;14.70;99.90;;;;;;5077000;28;20242;-53
2022/10/17 22:45:40;;;;;;;22.60;13.20;;;14.70;99.90;;;;;;5077559;28;20211;-53
2022/10/17 22:48:07;;;;;;;18.53;11.73;;;14.70;99.90;;;;;;5075620;28;20193;-53
2022/10/17 22:50:32;;;;;;;18.80;12.30;;;14.70;99.90;;;;;;5077363;28;20378;-51
2022/10/17 22:52:58;;;;;;;23.67;12.73;;;14.70;99.90;;;;;;5077072;28;20636;-53
2022/10/17 22:55:23;;;;;;;21.57;12.30;;;14.70;99.90;;;;;;5077017;28;20265;-53
2022/10/17 22:57:49;;;;;;;19.70;12.43;;;14.70;99.90;;;;;;5075655;28;20197;-53
2022/10/17 23:00:16;;;;;;;21.43;12.17;;;14.70;99.90;;;;;;5078932;28;20213;-53
2022/10/17 23:02:42;;;;;;;26.30;13.13;;;14.70;99.90;;;;;;5078340;28;20187;-53
2022/10/17 23:05:08;;;;;;;19.03;11.67;;;14.70;99.90;;;;;;5076195;28;20431;-53
2022/10/17 23:07:34;;;;;;;19.80;12.03;;;14.70;99.90;;;;;;5078079;28;20185;-53
2022/10/17 23:09:59;;;;;;;19.50;12.13;;;14.60;99.90;;;;;;5074336;28;20494;-53
2022/10/17 23:12:25;;;;;;;21.73;12.07;;;14.60;99.90;;;;;;5076734;28;20216;-53
2022/10/17 23:14:50;;;;;;;20.50;11.73;;;14.60;99.90;;;;;;5077588;28;20193;-53
2022/10/17 23:17:16;;;;;;;22.60;13.70;;;14.60;99.90;;;;;;5078319;28;20188;-53
2022/10/17 23:19:42;;;;;;;19.90;11.70;;;14.60;99.90;;;;;;5076009;28;20204;-53
2022/10/17 23:22:08;;;;;;;23.93;13.77;;;14.60;99.90;;;;;;5085591;28;20249;-53
2022/10/17 23:24:34;;;;;;;24.03;13.30;;;14.60;99.90;;;;;;5074364;28;20683;-53
2022/10/17 23:27:00;;;;;;;21.70;13.20;;;14.60;99.90;;;;;;5075640;28;20439;-53
2022/10/17 23:29:31;;;;;;;27.20;13.13;;;14.50;99.90;;;;;;5077217;28;20435;-53
2022/10/17 23:31:57;;;;;;;21.17;12.13;;;14.50;99.90;;;;;;5077244;28;20427;-52
2022/10/17 23:34:22;;;;;;;20.07;13.50;;;14.50;99.90;;;;;;5080469;28;20446;-53
2022/10/17 23:36:48;;;;;;;21.53;12.87;;;14.50;99.90;;;;;;5077041;28;20189;-52
2022/10/17 23:39:14;;;;;;;22.40;14.00;;;14.50;99.90;;;;;;5080891;28;20209;-53
2022/10/17 23:41:39;;;;;;;21.27;13.87;;;14.50;99.90;;;;;;5075874;28;20555;-52
2022/10/17 23:44:05;;;;;;;22.30;14.33;;;14.50;99.90;;;;;;5076959;28;20185;-53
2022/10/17 23:46:31;;;;;;;27.93;14.27;;;14.40;99.90;;;;;;5081361;28;20192;-53
2022/10/17 23:48:56;;;;;;;25.33;14.30;;;14.40;99.90;;;;;;5077948;28;20211;-53
2022/10/17 23:51:22;;;;;;;38.97;16.20;;;14.40;99.90;;;;;;5080217;28;20515;-53
2022/10/17 23:53:48;;;;;;;24.30;15.00;;;14.40;99.90;;;;;;5080133;28;20189;-52
2022/10/17 23:56:14;;;;;;;23.30;14.97;;;14.40;99.90;;;;;;5084992;28;20188;-52
2022/10/17 23:58:39;;;;;;;33.20;16.03;;;14.40;99.90;;;;;;5091745;28;20223;-53
